Time;durP1;ratioP1;P1;durP2;ratioP2;P2;SDS_P1;SDS_P2;PMS_P1;PMS_P2;Temp;Humidity;BMP_temperature;BMP_pressure;BME280_temperature;BME280_humidity;BME280_pressure;Samples;Min_cycle;Max_cycle;Signal;HPM_P1;HPM_P2
2021/05/23 00:01:26;;;;;;;4.10;1.10;;;;;;;14.31;56.33;94982.50;4989274;28;20039;-62
2021/05/23 00:03:52;;;;;;;1.98;1.08;;;;;;;14.31;56.46;94979.84;4987502;28;20034;-60
2021/05/23 00:06:17;;;;;;;2.67;1.15;;;;;;;14.31;56.68;94971.81;4989272;28;20069;-60
2021/05/23 00:08:43;;;;;;;3.42;1.48;;;;;;;14.35;56.66;94979.97;4988706;28;20027;-60
2021/05/23 00:11:09;;;;;;;1.75;1.27;;;;;;;14.31;56.73;94974.50;4991291;28;20035;-60
2021/05/23 00:13:40;;;;;;;2.58;1.25;;;;;;;14.27;56.47;94981.59;4988604;28;20133;-60
2021/05/23 00:16:19;;;;;;;1.85;1.08;;;;;;;14.30;56.61;95005.03;4987878;28;20081;-59
2021/05/23 00:18:49;;;;;;;2.58;1.30;;;;;;;14.29;57.15;94998.13;4989012;28;20046;-59
2021/05/23 00:21:18;;;;;;;1.65;1.00;;;;;;;14.28;57.03;95005.38;4989235;28;20484;-61
2021/05/23 00:23:43;;;;;;;1.33;1.00;;;;;;;14.25;56.96;95010.59;4988503;28;20029;-60
2021/05/23 00:26:09;;;;;;;0.93;0.75;;;;;;;14.25;57.08;95021.28;4990866;28;20026;-60
2021/05/23 00:28:35;;;;;;;1.13;0.85;;;;;;;14.23;57.33;95015.50;4987894;28;20042;-60
2021/05/23 00:31:03;;;;;;;1.17;0.95;;;;;;;14.23;57.69;95020.84;4989127;28;20030;-60
2021/05/23 00:33:28;;;;;;;1.88;0.90;;;;;;;14.25;57.76;95018.63;4988529;28;20034;-60
2021/05/23 00:35:54;;;;;;;2.70;1.00;;;;;;;14.16;58.33;95012.56;4989061;28;20022;-61
2021/05/23 00:38:19;;;;;;;3.85;0.90;;;;;;;14.07;59.15;95004.63;4990734;28;20117;-60
2021/05/23 00:40:45;;;;;;;2.45;1.00;;;;;;;14.20;59.16;95032.19;4987549;28;20081;-60
2021/05/23 00:43:16;;;;;;;0.70;0.70;;;;;;;14.21;59.32;95029.19;4988353;28;20046;-60
2021/05/23 00:45:42;;;;;;;1.88;1.00;;;;;;;14.13;59.20;95027.38;4987387;28;20042;-61
2021/05/23 00:48:08;;;;;;;2.08;1.10;;;;;;;14.17;59.70;95038.97;4988972;28;20077;-60
2021/05/23 00:50:34;;;;;;;1.70;1.17;;;;;;;14.17;59.98;95040.88;4990660;28;20427;-61
2021/05/23 00:53:00;;;;;;;2.88;0.95;;;;;;;14.03;60.51;95025.13;4988364;28;20384;-60
2021/05/23 00:55:25;;;;;;;2.72;1.00;;;;;;;14.02;62.07;95039.56;4988630;28;20038;-60
2021/05/23 00:57:51;;;;;;;3.60;1.60;;;;;;;13.89;62.26;95043.31;4988681;28;20042;-60
2021/05/23 01:00:32;;;;;;;3.33;1.50;;;;;;;13.75;62.36;95047.03;4988746;28;20055;-60
2021/05/23 01:03:00;;;;;;;2.60;1.13;;;;;;;13.72;63.54;95044.25;4988273;28;20038;-61
2021/05/23 01:05:26;;;;;;;0.98;0.90;;;;;;;13.65;63.72;95041.28;4990567;28;20026;-61
2021/05/23 01:07:52;;;;;;;2.72;1.10;;;;;;;13.62;64.47;95055.31;4988591;28;20491;-61
2021/05/23 01:10:21;;;;;;;1.80;1.10;;;;;;;13.55;65.25;95052.34;4988667;28;20038;-61
2021/05/23 01:13:21;;;;;;;1.23;1.13;;;;;;;13.49;66.22;95051.78;4988054;28;20441;-61
2021/05/23 01:15:49;;;;;;;3.03;1.45;;;;;;;13.46;67.66;95050.53;4988509;28;20035;-61
2021/05/23 01:18:23;;;;;;;2.05;1.33;;;;;;;13.42;67.50;95044.28;4988486;28;20054;-61
2021/05/23 01:20:58;;;;;;;1.88;1.30;;;;;;;13.41;67.79;95041.91;4990933;28;20080;-61
2021/05/23 01:23:29;;;;;;;1.73;1.27;;;;;;;13.40;67.79;95027.78;4993482;28;20023;-61
2021/05/23 01:26:06;;;;;;;1.25;1.10;;;;;;;13.39;67.81;95030.78;4992247;28;20050;-61
2021/05/23 01:28:57;;;;;;;1.52;1.08;;;;;;;13.38;67.60;95029.22;4992075;28;20523;-61
2021/05/23 01:31:26;;;;;;;1.30;1.20;;;;;;;13.26;67.74;95014.66;4992055;28;20129;-61
2021/05/23 01:33:53;;;;;;;2.92;1.10;;;;;;;13.35;67.92;95029.84;4991322;28;20189;-61
2021/05/23 01:36:22;;;;;;;2.45;1.20;;;;;;;13.30;68.66;95022.81;4991968;28;20611;-60
2021/05/23 01:38:47;;;;;;;2.50;1.17;;;;;;;13.20;68.73;95017.81;4990376;28;20034;-60
2021/05/23 01:41:13;;;;;;;1.48;0.98;;;;;;;13.24;68.45;95026.78;4993559;28;20026;-60
2021/05/23 01:43:39;;;;;;;1.33;1.20;;;;;;;13.26;68.44;95028.03;4991297;28;20548;-60
2021/05/23 01:46:06;;;;;;;2.20;1.00;;;;;;;13.26;68.70;95030.69;4991757;28;20069;-60
2021/05/23 01:48:34;;;;;;;1.90;1.17;;;;;;;13.27;68.51;95028.81;4990294;28;20496;-60
2021/05/23 01:51:00;;;;;;;4.57;2.17;;;;;;;13.29;68.78;95034.59;4991558;28;20042;-60
2021/05/23 01:53:26;;;;;;;3.50;1.10;;;;;;;13.27;68.16;95036.81;4993003;28;20052;-60
2021/05/23 01:55:51;;;;;;;3.35;1.02;;;;;;;13.18;67.98;95025.38;4991349;28;20042;-61
2021/05/23 01:58:16;;;;;;;1.73;1.00;;;;;;;13.25;68.04;95041.69;4991481;28;20070;-59
2021/05/23 02:00:46;;;;;;;1.13;0.90;;;;;;;13.23;68.32;95031.34;4991333;28;20047;-60
2021/05/23 02:03:14;;;;;;;2.75;1.20;;;;;;;13.30;68.45;95038.81;4990796;28;20048;-59
2021/05/23 02:05:42;;;;;;;1.77;1.00;;;;;;;13.26;68.64;95040.59;4990474;28;20031;-60
2021/05/23 02:08:08;;;;;;;1.70;1.20;;;;;;;13.26;68.31;95030.69;4992932;28;20089;-59
2021/05/23 02:10:35;;;;;;;4.95;1.13;;;;;;;13.31;68.49;95039.59;4991265;28;20042;-59
2021/05/23 02:13:03;;;;;;;1.42;0.88;;;;;;;13.27;68.29;95045.63;4990585;28;20030;-59
2021/05/23 02:15:29;;;;;;;1.00;1.00;;;;;;;12.98;69.67;95048.22;4989771;28;20031;-59
2021/05/23 02:17:55;;;;;;;2.55;1.45;;;;;;;13.10;69.41;95055.56;4990922;28;20038;-59
2021/05/23 02:20:24;;;;;;;2.10;1.00;;;;;;;13.13;69.33;95060.25;4993059;28;20027;-59
2021/05/23 02:22:51;;;;;;;2.90;0.95;;;;;;;13.15;69.39;95061.50;4990521;28;20049;-60
2021/05/23 02:25:19;;;;;;;1.00;1.00;;;;;;;12.91;69.47;95064.75;4990798;28;20065;-59
2021/05/23 02:27:52;;;;;;;3.22;1.20;;;;;;;13.00;69.75;95056.72;4990910;28;20046;-60
2021/05/23 02:30:24;;;;;;;1.70;1.02;;;;;;;13.08;69.83;95063.91;4989687;28;20034;-59
2021/05/23 02:32:51;;;;;;;1.75;1.05;;;;;;;12.99;70.10;95074.59;4989587;28;20022;-59
2021/05/23 02:35:19;;;;;;;1.02;0.90;;;;;;;12.11;72.54;95061.78;4991344;28;20053;-60
2021/05/23 02:37:45;;;;;;;2.00;0.93;;;;;;;11.53;76.01;95075.53;4990649;28;20492;-59
2021/05/23 02:40:19;;;;;;;1.42;0.90;;;;;;;11.99;75.22;95079.53;4990759;28;20042;-59
2021/05/23 02:42:46;;;;;;;4.20;1.20;;;;;;;12.17;74.46;95081.84;4990194;28;20066;-59
2021/05/23 02:45:14;;;;;;;2.90;1.20;;;;;;;12.37;74.04;95085.75;4990558;28;20117;-60
2021/05/23 02:47:40;;;;;;;1.48;1.08;;;;;;;11.36;76.99;95103.72;4990546;28;20117;-60
2021/05/23 02:50:08;;;;;;;3.25;1.17;;;;;;;11.03;79.42;95111.25;4992617;28;20019;-59
2021/05/23 02:52:34;;;;;;;2.67;1.20;;;;;;;10.41;82.94;95124.53;4989994;28;20081;-59
2021/05/23 02:55:00;;;;;;;2.45;1.42;;;;;;;10.06;84.33;95112.81;4990419;28;20027;-59
2021/05/23 02:57:25;;;;;;;4.97;2.38;;;;;;;9.99;85.08;95115.13;4990402;28;20054;-59
2021/05/23 02:59:51;;;;;;;1.67;1.58;;;;;;;9.63;84.17;95129.16;4990432;28;20452;-60
2021/05/23 03:02:16;;;;;;;1.90;1.35;;;;;;;9.11;85.25;95136.56;4991745;28;20026;-59
2021/05/23 03:04:41;;;;;;;2.10;1.10;;;;;;;8.68;85.25;95133.34;4988971;28;20423;-59
2021/05/23 03:07:07;;;;;;;3.80;1.50;;;;;;;8.77;87.68;95147.50;4990325;28;20133;-59
2021/05/23 03:09:32;;;;;;;2.05;1.67;;;;;;;8.42;89.09;95162.13;4990124;28;20042;-59
2021/05/23 03:11:58;;;;;;;3.22;1.67;;;;;;;7.99;89.56;95117.19;4990191;28;20038;-59
2021/05/23 03:14:24;;;;;;;6.75;2.22;;;;;;;8.49;91.06;95175.81;4991502;28;20499;-59
2021/05/23 03:16:49;;;;;;;4.97;2.40;;;;;;;8.27;91.62;95157.81;4989883;28;20042;-59
2021/05/23 03:19:14;;;;;;;6.63;2.47;;;;;;;8.39;90.79;95178.59;4989885;28;20061;-59
2021/05/23 03:21:40;;;;;;;2.45;1.90;;;;;;;8.16;91.88;95175.75;4988681;28;20403;-59
2021/05/23 03:24:06;;;;;;;4.85;2.60;;;;;;;8.30;92.82;95178.47;4989474;28;20038;-59
2021/05/23 03:26:32;;;;;;;2.90;1.92;;;;;;;8.23;92.01;95200.00;4992019;28;20034;-59
2021/05/23 03:28:57;;;;;;;4.95;2.00;;;;;;;8.11;93.71;95207.59;4989791;28;20092;-59
2021/05/23 03:31:23;;;;;;;2.95;1.52;;;;;;;8.03;92.58;95218.84;4988496;28;20081;-59
2021/05/23 03:33:48;;;;;;;4.13;2.28;;;;;;;8.18;93.67;95209.88;4989138;28;20042;-60
2021/05/23 03:36:14;;;;;;;3.15;1.60;;;;;;;7.90;94.45;95201.00;4989893;28;20412;-60
2021/05/23 03:38:45;;;;;;;2.60;1.70;;;;;;;8.14;93.43;95212.34;4989778;28;20018;-60
2021/05/23 03:41:11;;;;;;;4.18;2.58;;;;;;;8.36;93.39;95226.88;4991675;28;20555;-59
2021/05/23 03:43:37;;;;;;;4.53;2.60;;;;;;;8.43;92.65;95200.81;4988288;28;20062;-60
2021/05/23 03:46:02;;;;;;;4.35;2.70;;;;;;;8.68;91.34;95229.59;4989487;28;20109;-60
2021/05/23 03:48:27;;;;;;;3.08;2.20;;;;;;;8.33;93.08;95220.28;4989701;28;20512;-60
2021/05/23 03:50:53;;;;;;;3.70;2.50;;;;;;;8.36;92.68;95200.38;4989662;28;20420;-60
2021/05/23 03:53:18;;;;;;;2.75;2.17;;;;;;;8.44;92.90;95211.13;4991072;28;20033;-60
2021/05/23 03:55:44;;;;;;;9.48;2.72;;;;;;;8.61;91.15;95209.84;4989288;28;20404;-60
2021/05/23 03:58:09;;;;;;;7.40;3.17;;;;;;;8.95;91.21;95226.22;4989500;28;20042;-60
2021/05/23 04:00:36;;;;;;;3.92;2.00;;;;;;;8.59;90.43;95226.81;4988174;28;20077;-60
2021/05/23 04:03:02;;;;;;;2.95;1.70;;;;;;;8.60;90.95;95211.72;4989145;28;20566;-60
2021/05/23 04:05:28;;;;;;;8.85;2.65;;;;;;;8.72;90.85;95221.84;4991092;28;20022;-59
2021/05/23 04:07:55;;;;;;;1.73;1.52;;;;;;;8.35;91.63;95228.75;4989231;28;20050;-60
2021/05/23 04:10:24;;;;;;;2.60;1.67;;;;;;;8.53;90.04;95232.47;4989509;28;20108;-60
2021/05/23 04:12:51;;;;;;;1.52;1.30;;;;;;;8.38;90.39;95227.41;4988859;28;20042;-60
2021/05/23 04:15:18;;;;;;;3.92;2.30;;;;;;;8.72;91.23;95227.94;4989409;28;20034;-60
2021/05/23 04:17:45;;;;;;;2.40;1.70;;;;;;;8.50;90.12;95241.81;4989130;28;20027;-59
2021/05/23 04:20:13;;;;;;;2.60;1.80;;;;;;;8.45;92.24;95239.22;4991111;28;20030;-59
2021/05/23 04:22:39;;;;;;;1.67;1.40;;;;;;;8.29;92.05;95241.28;4988885;28;20135;-60
2021/05/23 04:25:08;;;;;;;3.05;1.80;;;;;;;8.19;93.61;95261.81;4989309;28;20031;-59
2021/05/23 04:27:35;;;;;;;2.53;1.85;;;;;;;8.11;92.75;95260.59;4989215;28;20050;-59
2021/05/23 04:30:00;;;;;;;2.97;1.92;;;;;;;8.21;93.79;95260.47;4989077;28;20042;-59
2021/05/23 04:32:25;;;;;;;3.05;2.45;;;;;;;8.45;92.99;95264.97;4990486;28;20415;-59
2021/05/23 04:34:51;;;;;;;2.40;1.65;;;;;;;8.39;91.44;95255.47;4989018;28;20197;-59
2021/05/23 04:37:16;;;;;;;1.50;1.27;;;;;;;8.22;92.06;95272.63;4988990;28;20042;-59
2021/05/23 04:39:43;;;;;;;1.92;1.73;;;;;;;8.43;92.38;95283.78;4989033;28;20047;-59
2021/05/23 04:42:08;;;;;;;2.40;1.90;;;;;;;8.51;92.89;95277.06;4988519;28;20440;-59
2021/05/23 04:44:34;;;;;;;2.17;1.88;;;;;;;8.24;92.10;95278.44;4990561;28;20030;-60
2021/05/23 04:46:59;;;;;;;3.08;1.90;;;;;;;8.27;91.51;95269.13;4989004;28;20035;-60
2021/05/23 04:49:25;;;;;;;1.70;1.60;;;;;;;8.23;92.13;95274.19;4987649;28;20045;-60
2021/05/23 04:51:50;;;;;;;4.00;1.50;;;;;;;8.01;91.11;95276.63;4988978;28;20497;-61
2021/05/23 04:54:15;;;;;;;1.40;1.30;;;;;;;8.37;91.65;95281.50;4988356;28;20089;-60
2021/05/23 04:56:41;;;;;;;2.30;1.40;;;;;;;8.32;89.61;95299.00;4992615;28;20085;-60
2021/05/23 04:59:06;;;;;;;2.38;1.38;;;;;;;8.53;89.00;95286.28;4994373;28;20111;-60
2021/05/23 05:01:31;;;;;;;1.83;1.17;;;;;;;8.73;89.19;95301.13;4991238;28;20047;-60
2021/05/23 05:03:57;;;;;;;1.63;1.30;;;;;;;8.60;88.14;95304.50;4990449;28;20058;-60
2021/05/23 05:06:23;;;;;;;1.45;1.35;;;;;;;8.69;88.36;95286.84;4991124;28;20038;-59
2021/05/23 05:08:49;;;;;;;1.50;1.35;;;;;;;9.10;88.84;95300.28;4991103;28;20419;-60
2021/05/23 05:11:14;;;;;;;1.67;1.00;;;;;;;9.03;87.83;95302.53;4994253;28;20024;-60
2021/05/23 05:13:39;;;;;;;4.35;1.23;;;;;;;9.08;88.13;95291.03;4991932;28;20068;-60
2021/05/23 05:16:05;;;;;;;1.63;1.42;;;;;;;8.77;86.59;95314.59;4991061;28;20062;-60
2021/05/23 05:18:31;;;;;;;1.20;1.10;;;;;;;8.90;87.50;95297.94;4992184;28;20435;-60
2021/05/23 05:20:56;;;;;;;1.88;1.13;;;;;;;9.10;86.13;95323.38;4992197;28;20125;-60
2021/05/23 05:23:22;;;;;;;3.65;1.27;;;;;;;9.24;86.83;95321.56;4993570;28;20110;-59
2021/05/23 05:25:47;;;;;;;1.33;0.95;;;;;;;9.17;84.45;95329.13;4990824;28;20049;-60
2021/05/23 05:28:13;;;;;;;1.98;0.80;;;;;;;9.52;85.14;95329.59;4990674;28;20455;-60
2021/05/23 05:30:38;;;;;;;1.40;1.00;;;;;;;9.62;85.19;95324.91;4992071;28;20038;-59
2021/05/23 05:33:04;;;;;;;0.70;0.70;;;;;;;9.19;83.50;95320.84;4991339;28;20046;-59
2021/05/23 05:35:29;;;;;;;1.60;0.60;;;;;;;9.51;83.45;95336.75;4992477;28;20117;-59
2021/05/23 05:37:54;;;;;;;0.75;0.75;;;;;;;9.75;85.28;95325.22;4991930;28;20042;-60
2021/05/23 05:40:20;;;;;;;0.82;0.65;;;;;;;10.10;84.46;95339.69;4991713;28;20388;-60
2021/05/23 05:42:45;;;;;;;3.22;1.65;;;;;;;10.16;83.72;95319.91;4989779;28;20129;-60
2021/05/23 05:45:12;;;;;;;0.93;0.88;;;;;;;9.94;81.83;95336.56;4991677;28;20121;-60
2021/05/23 05:47:37;;;;;;;0.80;0.57;;;;;;;9.91;80.99;95331.81;4991756;28;20038;-61
2021/05/23 05:50:03;;;;;;;0.80;0.50;;;;;;;9.98;79.45;95353.50;4993647;28;20022;-60
2021/05/23 05:52:29;;;;;;;0.40;0.40;;;;;;;10.06;80.77;95346.69;4989795;28;20116;-60
2021/05/23 05:54:54;;;;;;;0.80;0.50;;;;;;;9.96;79.39;95350.31;4991469;28;20081;-59
2021/05/23 05:57:20;;;;;;;0.95;0.43;;;;;;;9.94;80.53;95349.84;4991391;28;20065;-60
2021/05/23 05:59:46;;;;;;;0.30;0.30;;;;;;;9.45;80.98;95363.69;4991463;28;20018;-60
2021/05/23 06:02:11;;;;;;;0.70;0.25;;;;;;;9.85;81.86;95370.97;4992826;28;20023;-59
2021/05/23 06:04:36;;;;;;;0.43;0.40;;;;;;;9.68;80.44;95372.63;4991638;28;20049;-59
2021/05/23 06:07:02;;;;;;;0.73;0.40;;;;;;;9.72;80.21;95386.88;4990397;28;20035;-60
2021/05/23 06:09:27;;;;;;;0.75;0.30;;;;;;;9.38;79.99;95346.28;4990182;28;20488;-60
2021/05/23 06:11:53;;;;;;;0.43;0.38;;;;;;;9.73;81.74;95389.25;4991195;28;20028;-61
2021/05/23 06:14:18;;;;;;;0.30;0.30;;;;;;;10.07;82.74;95388.13;4992683;28;20019;-60
2021/05/23 06:16:43;;;;;;;0.60;0.60;;;;;;;9.79;79.90;95379.34;4991294;28;20076;-60
2021/05/23 06:19:09;;;;;;;0.25;0.20;;;;;;;9.35;80.06;95369.97;4989831;28;20050;-60
2021/05/23 06:21:35;;;;;;;0.32;0.32;;;;;;;9.58;81.89;95384.22;4989734;28;20074;-60
2021/05/23 06:24:01;;;;;;;1.50;0.35;;;;;;;9.72;81.29;95392.19;4961558;28;20049;-61
2021/05/23 06:26:27;;;;;;;0.22;0.22;;;;;;;10.07;81.98;95417.34;4965733;28;20054;-60
2021/05/23 06:28:54;;;;;;;0.28;0.20;;;;;;;9.63;79.51;95378.81;4989549;28;20049;-60
2021/05/23 06:31:20;;;;;;;0.22;0.22;;;;;;;9.83;78.93;95409.56;4990874;28;20035;-60
2021/05/23 06:33:45;;;;;;;0.85;0.20;;;;;;;9.65;79.88;95397.88;4990469;28;20049;-60
2021/05/23 06:36:11;;;;;;;0.75;0.40;;;;;;;9.85;80.85;95404.72;4990946;28;20039;-59
2021/05/23 06:38:37;;;;;;;1.85;0.30;;;;;;;9.69;80.24;95429.97;4990859;28;20042;-60
2021/05/23 06:41:02;;;;;;;0.20;0.20;;;;;;;9.42;80.84;95409.41;4992508;28;20092;-59
2021/05/23 06:43:27;;;;;;;0.55;0.30;;;;;;;9.62;80.43;95420.53;4990187;28;20749;-61
2021/05/23 06:45:53;;;;;;;0.68;0.30;;;;;;;9.78;81.24;95423.72;4990714;28;20046;-60
2021/05/23 06:48:18;;;;;;;0.30;0.30;;;;;;;9.52;81.32;95439.28;4990635;28;20035;-61
2021/05/23 06:50:44;;;;;;;0.70;0.28;;;;;;;9.91;81.70;95427.47;4989245;28;20026;-60
2021/05/23 06:53:10;;;;;;;2.38;0.32;;;;;;;8.78;82.38;95412.44;4991944;28;20064;-60
2021/05/23 06:55:35;;;;;;;0.22;0.22;;;;;;;9.40;82.70;95417.66;4990202;28;20042;-61
2021/05/23 06:58:00;;;;;;;1.17;0.35;;;;;;;9.93;83.89;95448.41;4990108;28;20214;-60
2021/05/23 07:00:26;;;;;;;0.68;0.30;;;;;;;9.84;82.04;95424.41;4990094;28;20073;-59
2021/05/23 07:02:51;;;;;;;0.63;0.50;;;;;;;9.93;82.08;95404.06;4989699;28;20033;-60
2021/05/23 07:05:16;;;;;;;1.83;0.75;;;;;;;9.79;81.66;95440.44;4992032;28;20028;-60
2021/05/23 07:07:42;;;;;;;0.38;0.32;;;;;;;9.30;81.61;95458.44;4990239;28;20042;-60
2021/05/23 07:10:08;;;;;;;0.65;0.40;;;;;;;9.25;82.05;95461.16;4989061;28;20035;-60
2021/05/23 07:12:33;;;;;;;0.50;0.50;;;;;;;9.21;82.82;95483.25;4989619;28;20041;-60
2021/05/23 07:14:59;;;;;;;11.07;0.90;;;;;;;8.77;84.30;95474.53;4988823;28;20035;-60
2021/05/23 07:17:24;;;;;;;1.27;0.40;;;;;;;8.26;88.88;95488.31;4991581;28;20023;-60
2021/05/23 07:19:49;;;;;;;11.05;1.95;;;;;;;8.62;87.49;95480.00;4989835;28;20563;-61
2021/05/23 07:22:15;;;;;;;0.80;0.80;;;;;;;9.08;87.97;95468.84;4989226;28;20034;-61
2021/05/23 07:24:40;;;;;;;1.58;0.60;;;;;;;9.71;89.07;95500.31;4989577;28;20113;-61
2021/05/23 07:27:06;;;;;;;0.47;0.40;;;;;;;8.97;86.20;95505.31;4989813;28;20034;-60
2021/05/23 07:29:31;;;;;;;0.60;0.60;;;;;;;9.15;85.75;95502.97;4991705;28;20022;-60
2021/05/23 07:31:57;;;;;;;1.88;0.75;;;;;;;9.00;87.02;95498.63;4989790;28;20512;-60
2021/05/23 07:34:22;;;;;;;0.73;0.70;;;;;;;8.89;87.00;95502.50;4989327;28;20484;-60
2021/05/23 07:36:47;;;;;;;1.08;0.73;;;;;;;9.47;88.16;95511.03;4989428;28;20053;-60
2021/05/23 07:39:13;;;;;;;1.15;0.70;;;;;;;9.96;87.13;95507.09;4989421;28;20503;-57
2021/05/23 07:41:38;;;;;;;2.08;0.73;;;;;;;10.28;86.15;95510.84;4989389;28;20022;-58
2021/05/23 07:44:04;;;;;;;0.65;0.63;;;;;;;9.66;84.52;95388.84;4989786;28;20034;-57
2021/05/23 07:46:31;;;;;;;0.60;0.60;;;;;;;10.25;83.14;95451.09;4989534;28;20534;-63
2021/05/23 07:48:56;;;;;;;1.00;0.68;;;;;;;11.08;82.61;95497.09;4989492;28;20046;-63
2021/05/23 07:51:21;;;;;;;1.35;0.68;;;;;;;11.74;82.46;95516.19;4989585;28;20034;-62
2021/05/23 07:53:47;;;;;;;1.38;0.60;;;;;;;12.04;81.81;95479.28;4987702;28;20419;-61
2021/05/23 07:56:13;;;;;;;0.40;0.40;;;;;;;12.27;78.24;95488.81;4991208;28;20076;-70
2021/05/23 07:58:38;;;;;;;0.63;0.50;;;;;;;12.68;77.93;95501.09;4989308;28;20385;-63
2021/05/23 08:01:04;;;;;;;0.82;0.40;;;;;;;12.34;72.20;95481.19;4988493;28;20100;-63
2021/05/23 08:03:29;;;;;;;0.95;0.50;;;;;;;12.58;74.64;95493.34;4987535;28;20066;-63
2021/05/23 08:05:55;;;;;;;1.00;0.52;;;;;;;12.69;74.01;95514.16;4988094;28;20097;-58
2021/05/23 08:08:20;;;;;;;1.05;0.50;;;;;;;12.96;74.52;95509.69;4991075;28;20121;-65
2021/05/23 08:10:46;;;;;;;1.02;0.52;;;;;;;13.22;73.69;95488.41;4988482;28;20042;-63
2021/05/23 08:13:12;;;;;;;0.70;0.57;;;;;;;13.37;70.24;95503.22;4987387;28;20459;-63
2021/05/23 08:15:37;;;;;;;1.95;0.30;;;;;;;13.61;69.96;95482.16;4988284;28;20141;-71
2021/05/23 08:18:03;;;;;;;0.90;0.50;;;;;;;13.52;67.36;95498.19;4987573;28;20051;-69
2021/05/23 08:20:29;;;;;;;0.85;0.40;;;;;;;14.13;69.59;95513.44;4991375;28;20057;-65
2021/05/23 08:22:54;;;;;;;1.30;0.45;;;;;;;13.40;66.37;95513.25;4987489;28;20519;-65
2021/05/23 08:25:20;;;;;;;0.55;0.40;;;;;;;12.16;71.75;95533.63;4989248;28;20121;-65
2021/05/23 08:27:45;;;;;;;0.77;0.40;;;;;;;11.63;72.39;95539.63;4989045;28;20065;-65
2021/05/23 08:30:12;;;;;;;0.80;0.50;;;;;;;12.48;73.63;95540.56;4990838;28;20438;-62
2021/05/23 08:32:38;;;;;;;0.80;0.40;;;;;;;12.03;71.84;95534.47;4992715;28;20050;-65
2021/05/23 08:35:06;;;;;;;0.40;0.38;;;;;;;11.64;70.84;95553.72;4995083;28;20499;-63
2021/05/23 08:37:31;;;;;;;0.98;0.43;;;;;;;10.85;73.35;95556.63;4992990;28;20038;-63
2021/05/23 08:39:57;;;;;;;0.35;0.30;;;;;;;11.71;73.50;95551.44;4991847;28;20047;-61
2021/05/23 08:42:22;;;;;;;0.35;0.30;;;;;;;11.82;73.02;95525.38;4992645;28;20047;-66
2021/05/23 08:44:48;;;;;;;0.38;0.30;;;;;;;11.77;71.50;95528.91;4993090;28;20027;-61
2021/05/23 08:47:14;;;;;;;0.77;0.40;;;;;;;10.83;73.83;95548.97;4995066;28;20061;-63
2021/05/23 08:49:39;;;;;;;0.20;0.20;;;;;;;11.76;74.11;95561.97;4993127;28;20043;-60
2021/05/23 08:52:05;;;;;;;1.23;1.00;;;;;;;11.78;71.34;95559.03;4993005;28;20062;-63
2021/05/23 08:54:31;;;;;;;1.63;0.98;;;;;;;12.37;70.15;95557.13;4992530;28;20022;-62
2021/05/23 08:56:56;;;;;;;0.93;0.73;;;;;;;12.85;68.42;95567.91;4992887;28;20031;-60
2021/05/23 08:59:22;;;;;;;0.43;0.40;;;;;;;13.28;67.78;95553.94;4994785;28;20533;-62
2021/05/23 09:01:48;;;;;;;1.60;0.82;;;;;;;14.05;66.66;95563.16;4992859;28;20046;-61
2021/05/23 09:04:18;;;;;;;2.20;0.63;;;;;;;13.96;65.22;95563.16;4991925;28;20058;-64
2021/05/23 09:06:45;;;;;;;1.10;0.45;;;;;;;11.46;71.60;95584.72;4992608;28;20055;-63
2021/05/23 09:09:13;;;;;;;0.40;0.40;;;;;;;10.38;74.19;95596.56;4992520;28;20041;-62
2021/05/23 09:11:49;;;;;;;0.50;0.20;;;;;;;9.84;69.50;95575.84;4991129;28;20085;-64
2021/05/23 09:14:17;;;;;;;0.65;0.35;;;;;;;9.11;73.80;95604.41;4993996;28;20503;-64
2021/05/23 09:16:42;;;;;;;2.03;0.40;;;;;;;8.66;75.35;95610.97;4992493;28;20480;-64
2021/05/23 09:19:08;;;;;;;2.17;0.50;;;;;;;8.74;74.23;95583.81;4992508;28;20178;-64
2021/05/23 09:21:37;;;;;;;0.50;0.43;;;;;;;8.46;75.41;95603.19;4992193;28;20057;-63
2021/05/23 09:24:09;;;;;;;1.13;0.63;;;;;;;8.68;75.22;95614.13;4991921;28;20031;-65
2021/05/23 09:26:42;;;;;;;2.00;0.98;;;;;;;9.61;73.38;95594.22;4993945;28;20027;-64
2021/05/23 09:29:10;;;;;;;1.50;0.90;;;;;;;9.13;72.24;95540.41;4992569;28;20459;-65
2021/05/23 09:31:37;;;;;;;4.05;1.70;;;;;;;9.87;73.85;95586.69;4992045;28;20042;-65
2021/05/23 09:34:03;;;;;;;2.67;0.50;;;;;;;9.31;71.99;95581.31;4991652;28;20043;-64
2021/05/23 09:36:28;;;;;;;1.33;0.73;;;;;;;8.93;76.77;95599.81;4990844;28;20066;-63
2021/05/23 09:38:59;;;;;;;0.40;0.40;;;;;;;8.95;78.42;95612.78;4991938;28;20030;-64
2021/05/23 09:41:27;;;;;;;3.05;0.73;;;;;;;8.36;79.92;95598.78;4992507;28;20476;-67
2021/05/23 09:44:25;;;;;;;4.68;1.13;;;;;;;8.91;81.62;95601.97;4990231;28;20047;-66
2021/05/23 09:47:01;;;;;;;4.88;1.65;;;;;;;9.04;81.31;95603.16;4991927;28;20120;-64
2021/05/23 09:49:28;;;;;;;2.30;0.80;;;;;;;9.04;82.20;95605.81;4990478;28;20038;-66
2021/05/23 09:52:03;;;;;;;3.83;0.80;;;;;;;9.03;81.50;95609.53;4991615;28;20030;-65
2021/05/23 09:54:41;;;;;;;5.53;1.20;;;;;;;9.06;82.63;95599.16;4990022;28;20038;-66
2021/05/23 09:57:12;;;;;;;4.13;2.00;;;;;;;9.25;84.65;95609.81;4991708;28;20038;-65
2021/05/23 09:59:37;;;;;;;4.72;0.90;;;;;;;8.72;83.27;95609.06;4990282;28;20045;-64
2021/05/23 10:02:07;;;;;;;4.32;2.88;;;;;;;10.72;84.92;95616.75;4993518;28;20030;-65
2021/05/23 10:04:35;;;;;;;4.38;1.48;;;;;;;10.55;73.61;95617.31;4991382;28;20034;-64
2021/05/23 10:07:04;;;;;;;2.80;0.98;;;;;;;10.25;77.63;95615.94;4991556;28;20618;-65
2021/05/23 10:09:31;;;;;;;1.65;1.13;;;;;;;10.93;81.26;95598.56;4990141;28;20525;-74
2021/05/23 10:11:57;;;;;;;3.10;0.90;;;;;;;11.32;72.45;95608.72;4990308;28;20182;-66
2021/05/23 10:14:24;;;;;;;1.98;1.38;;;;;;;12.05;76.62;95611.50;4992820;28;20480;-65
2021/05/23 10:16:51;;;;;;;2.72;1.20;;;;;;;11.43;74.63;95540.06;4989948;28;20396;-64
2021/05/23 10:19:28;;;;;;;1.23;0.98;;;;;;;11.21;77.62;95618.00;4991157;28;20047;-64
2021/05/23 10:21:56;;;;;;;2.92;0.95;;;;;;;10.60;78.96;95617.22;4991037;28;20500;-62
2021/05/23 10:24:35;;;;;;;1.73;1.20;;;;;;;11.28;75.08;95618.38;4990663;28;20062;-66
2021/05/23 10:27:13;;;;;;;3.28;0.90;;;;;;;11.23;72.62;95599.06;4991105;28;20026;-68
2021/05/23 10:29:46;;;;;;;1.70;0.77;;;;;;;10.82;76.07;95608.59;4990040;28;20033;-61
2021/05/23 10:32:14;;;;;;;3.30;1.05;;;;;;;9.99;77.84;95598.75;4992543;28;20385;-66
2021/05/23 10:34:42;;;;;;;2.25;1.13;;;;;;;9.97;81.09;95614.19;4991048;28;20076;-66
2021/05/23 10:37:12;;;;;;;1.08;0.90;;;;;;;9.68;79.87;95599.19;4989674;28;20419;-67
2021/05/23 10:39:51;;;;;;;4.57;1.30;;;;;;;10.14;83.60;95617.13;4989576;28;20038;-62
2021/05/23 10:42:18;;;;;;;4.28;1.65;;;;;;;10.19;86.64;95595.00;4990221;28;20074;-66
2021/05/23 10:44:51;;;;;;;1.80;1.10;;;;;;;10.65;84.44;95598.53;4990700;28;20061;-64
2021/05/23 10:47:34;;;;;;;2.25;1.27;;;;;;;11.50;84.35;95583.06;4992455;28;20036;-63
2021/05/23 10:50:01;;;;;;;1.85;1.55;;;;;;;12.64;83.39;95601.53;4990653;28;20042;-65
2021/05/23 10:52:29;;;;;;;2.15;0.82;;;;;;;13.50;78.99;95595.81;4989319;28;20141;-65
2021/05/23 10:55:13;;;;;;;1.40;0.73;;;;;;;14.08;77.96;95591.97;4990395;28;20053;-65
2021/05/23 10:57:46;;;;;;;1.45;0.63;;;;;;;14.36;76.57;95584.38;4990607;28;20034;-65
2021/05/23 11:00:19;;;;;;;2.35;0.80;;;;;;;14.85;75.52;95590.31;4989205;28;20400;-66
2021/05/23 11:02:46;;;;;;;2.95;0.75;;;;;;;15.21;74.33;95581.06;4990011;28;20026;-65
2021/05/23 11:05:20;;;;;;;0.68;0.60;;;;;;;15.32;71.23;95591.09;4992286;28;20550;-65
2021/05/23 11:07:57;;;;;;;1.48;0.68;;;;;;;15.16;69.50;95597.31;4990324;28;20136;-65
2021/05/23 11:10:24;;;;;;;3.13;0.90;;;;;;;14.91;69.53;95596.28;4990168;28;20038;-65
2021/05/23 11:12:52;;;;;;;3.65;0.55;;;;;;;14.58;68.73;95570.03;4989647;28;20507;-64
2021/05/23 11:15:18;;;;;;;1.45;0.60;;;;;;;13.83;63.83;95569.47;4990229;28;20049;-64
2021/05/23 11:17:44;;;;;;;0.80;0.50;;;;;;;13.21;68.84;95566.94;4990077;28;20532;-65
2021/05/23 11:20:25;;;;;;;1.23;0.52;;;;;;;13.09;70.83;95559.50;4992096;28;20514;-65
2021/05/23 11:23:02;;;;;;;0.50;0.50;;;;;;;13.52;73.90;95551.66;4988236;28;20043;-65
2021/05/23 11:25:28;;;;;;;1.63;0.50;;;;;;;13.89;75.82;95565.53;4988562;28;20501;-63
2021/05/23 11:28:03;;;;;;;0.57;0.40;;;;;;;13.53;67.78;95566.59;4989993;28;20054;-64
2021/05/23 11:30:32;;;;;;;1.67;0.60;;;;;;;13.58;70.81;95554.19;4989797;28;20034;-63
2021/05/23 11:33:04;;;;;;;1.55;0.45;;;;;;;13.76;73.93;95545.06;4989203;28;20034;-63
2021/05/23 11:35:32;;;;;;;1.63;0.60;;;;;;;14.15;70.90;95544.13;4991601;28;20030;-62
2021/05/23 11:37:58;;;;;;;2.03;0.60;;;;;;;14.91;64.45;95543.50;4989631;28;20041;-63